sensor_id;sensor_type;location;lat;lon;timestamp;P1;durP1;ratioP1;P2;durP2;ratioP2
28762;SDS011;15918;51.270;6.522;2023-11-19T00:00:21;4.93;;;3.35;;
28762;SDS011;15918;51.270;6.522;2023-11-19T00:02:47;4.55;;;4.00;;
28762;SDS011;15918;51.270;6.522;2023-11-19T00:05:12;9.60;;;5.82;;
28762;SDS011;15918;51.270;6.522;2023-11-19T00:07:38;9.30;;;6.22;;
28762;SDS011;15918;51.270;6.522;2023-11-19T00:10:10;9.50;;;7.10;;
28762;SDS011;15918;51.270;6.522;2023-11-19T00:12:41;6.47;;;5.43;;
28762;SDS011;15918;51.270;6.522;2023-11-19T00:15:09;10.93;;;6.47;;
28762;SDS011;15918;51.270;6.522;2023-11-19T00:17:39;12.50;;;7.35;;
28762;SDS011;15918;51.270;6.522;2023-11-19T00:20:13;13.75;;;9.27;;
28762;SDS011;15918;51.270;6.522;2023-11-19T00:22:40;12.13;;;9.18;;
28762;SDS011;15918;51.270;6.522;2023-11-19T00:25:07;9.85;;;8.25;;
28762;SDS011;15918;51.270;6.522;2023-11-19T00:27:33;9.65;;;7.57;;
28762;SDS011;15918;51.270;6.522;2023-11-19T00:29:59;10.05;;;7.32;;
28762;SDS011;15918;51.270;6.522;2023-11-19T00:32:24;7.03;;;6.30;;
28762;SDS011;15918;51.270;6.522;2023-11-19T00:34:50;8.35;;;6.85;;
28762;SDS011;15918;51.270;6.522;2023-11-19T00:37:16;6.03;;;5.10;;
28762;SDS011;15918;51.270;6.522;2023-11-19T00:39:42;6.85;;;5.72;;
28762;SDS011;15918;51.270;6.522;2023-11-19T00:42:08;7.72;;;5.25;;
28762;SDS011;15918;51.270;6.522;2023-11-19T00:44:35;8.82;;;5.03;;
28762;SDS011;15918;51.270;6.522;2023-11-19T00:47:01;6.20;;;4.35;;
28762;SDS011;15918;51.270;6.522;2023-11-19T00:49:26;6.40;;;4.75;;
28762;SDS011;15918;51.270;6.522;2023-11-19T00:51:52;6.95;;;4.22;;
28762;SDS011;15918;51.270;6.522;2023-11-19T00:54:17;5.25;;;4.22;;
28762;SDS011;15918;51.270;6.522;2023-11-19T00:56:43;4.57;;;4.15;;
28762;SDS011;15918;51.270;6.522;2023-11-19T00:59:09;5.88;;;3.97;;
28762;SDS011;15918;51.270;6.522;2023-11-19T01:01:35;4.50;;;4.10;;
28762;SDS011;15918;51.270;6.522;2023-11-19T01:04:01;6.70;;;4.10;;
28762;SDS011;15918;51.270;6.522;2023-11-19T01:06:30;6.65;;;3.45;;
28762;SDS011;15918;51.270;6.522;2023-11-19T01:08:56;4.18;;;3.30;;
28762;SDS011;15918;51.270;6.522;2023-11-19T01:11:23;3.97;;;3.67;;
28762;SDS011;15918;51.270;6.522;2023-11-19T01:13:48;5.50;;;3.58;;
28762;SDS011;15918;51.270;6.522;2023-11-19T01:16:15;3.58;;;3.28;;
28762;SDS011;15918;51.270;6.522;2023-11-19T01:18:41;3.67;;;3.30;;
28762;SDS011;15918;51.270;6.522;2023-11-19T01:21:06;4.10;;;3.70;;
28762;SDS011;15918;51.270;6.522;2023-11-19T01:23:32;3.42;;;2.88;;
28762;SDS011;15918;51.270;6.522;2023-11-19T01:25:58;5.72;;;2.97;;
28762;SDS011;15918;51.270;6.522;2023-11-19T01:28:23;3.22;;;2.92;;
28762;SDS011;15918;51.270;6.522;2023-11-19T01:30:52;5.50;;;3.10;;
28762;SDS011;15918;51.270;6.522;2023-11-19T01:33:18;3.30;;;2.65;;
28762;SDS011;15918;51.270;6.522;2023-11-19T01:35:44;6.20;;;3.10;;
28762;SDS011;15918;51.270;6.522;2023-11-19T01:38:10;6.00;;;3.10;;
28762;SDS011;15918;51.270;6.522;2023-11-19T01:40:35;3.17;;;2.83;;
28762;SDS011;15918;51.270;6.522;2023-11-19T01:43:02;5.80;;;3.70;;
28762;SDS011;15918;51.270;6.522;2023-11-19T01:45:29;6.40;;;3.30;;
28762;SDS011;15918;51.270;6.522;2023-11-19T01:47:59;9.27;;;2.88;;
28762;SDS011;15918;51.270;6.522;2023-11-19T01:50:30;6.53;;;3.38;;
28762;SDS011;15918;51.270;6.522;2023-11-19T01:52:58;6.43;;;3.28;;
28762;SDS011;15918;51.270;6.522;2023-11-19T01:55:24;6.93;;;3.40;;
28762;SDS011;15918;51.270;6.522;2023-11-19T01:57:53;3.30;;;2.67;;
28762;SDS011;15918;51.270;6.522;2023-11-19T02:00:24;4.95;;;2.78;;
28762;SDS011;15918;51.270;6.522;2023-11-19T02:02:50;6.10;;;3.15;;
28762;SDS011;15918;51.270;6.522;2023-11-19T02:05:17;6.35;;;3.33;;
28762;SDS011;15918;51.270;6.522;2023-11-19T02:07:43;6.28;;;3.50;;
28762;SDS011;15918;51.270;6.522;2023-11-19T02:10:11;6.55;;;3.20;;
28762;SDS011;15918;51.270;6.522;2023-11-19T02:12:42;5.82;;;3.10;;
28762;SDS011;15918;51.270;6.522;2023-11-19T02:15:08;8.30;;;3.30;;
28762;SDS011;15918;51.270;6.522;2023-11-19T02:17:35;7.90;;;4.18;;
28762;SDS011;15918;51.270;6.522;2023-11-19T02:20:02;14.60;;;4.55;;
28762;SDS011;15918;51.270;6.522;2023-11-19T02:22:31;7.38;;;3.70;;
28762;SDS011;15918;51.270;6.522;2023-11-19T02:24:59;8.93;;;3.85;;
28762;SDS011;15918;51.270;6.522;2023-11-19T02:30:22;10.18;;;4.45;;
28762;SDS011;15918;51.270;6.522;2023-11-19T02:32:52;12.57;;;4.57;;
28762;SDS011;15918;51.270;6.522;2023-11-19T02:35:19;12.18;;;4.45;;
28762;SDS011;15918;51.270;6.522;2023-11-19T02:37:46;14.27;;;5.38;;
28762;SDS011;15918;51.270;6.522;2023-11-19T02:40:12;17.33;;;5.15;;
28762;SDS011;15918;51.270;6.522;2023-11-19T02:42:38;14.50;;;5.13;;
28762;SDS011;15918;51.270;6.522;2023-11-19T02:45:04;17.35;;;5.65;;
28762;SDS011;15918;51.270;6.522;2023-11-19T02:47:31;14.38;;;5.60;;
28762;SDS011;15918;51.270;6.522;2023-11-19T02:49:57;15.02;;;5.40;;
28762;SDS011;15918;51.270;6.522;2023-11-19T02:52:22;17.10;;;5.75;;
28762;SDS011;15918;51.270;6.522;2023-11-19T02:54:49;16.90;;;5.75;;
28762;SDS011;15918;51.270;6.522;2023-11-19T02:57:16;13.80;;;4.95;;
28762;SDS011;15918;51.270;6.522;2023-11-19T02:59:44;16.60;;;6.03;;
28762;SDS011;15918;51.270;6.522;2023-11-19T03:02:10;20.02;;;6.18;;
28762;SDS011;15918;51.270;6.522;2023-11-19T03:04:36;19.60;;;5.43;;
28762;SDS011;15918;51.270;6.522;2023-11-19T03:07:05;19.77;;;6.82;;
28762;SDS011;15918;51.270;6.522;2023-11-19T03:09:32;18.48;;;6.55;;
28762;SDS011;15918;51.270;6.522;2023-11-19T03:11:59;21.30;;;6.05;;
28762;SDS011;15918;51.270;6.522;2023-11-19T03:14:25;12.68;;;5.25;;
28762;SDS011;15918;51.270;6.522;2023-11-19T03:16:50;16.65;;;5.60;;
28762;SDS011;15918;51.270;6.522;2023-11-19T03:19:16;25.17;;;6.78;;
28762;SDS011;15918;51.270;6.522;2023-11-19T03:21:42;16.65;;;5.85;;
28762;SDS011;15918;51.270;6.522;2023-11-19T03:24:07;20.00;;;6.05;;
28762;SDS011;15918;51.270;6.522;2023-11-19T03:26:33;21.35;;;6.75;;
28762;SDS011;15918;51.270;6.522;2023-11-19T03:28:59;21.38;;;6.70;;
28762;SDS011;15918;51.270;6.522;2023-11-19T03:31:25;21.27;;;6.32;;
28762;SDS011;15918;51.270;6.522;2023-11-19T03:33:50;22.50;;;6.22;;
28762;SDS011;15918;51.270;6.522;2023-11-19T03:36:16;22.67;;;6.55;;
28762;SDS011;15918;51.270;6.522;2023-11-19T03:38:42;20.65;;;6.50;;
28762;SDS011;15918;51.270;6.522;2023-11-19T03:41:11;24.48;;;6.57;;
28762;SDS011;15918;51.270;6.522;2023-11-19T03:43:37;22.98;;;6.80;;
28762;SDS011;15918;51.270;6.522;2023-11-19T03:46:03;24.58;;;7.10;;
28762;SDS011;15918;51.270;6.522;2023-11-19T03:48:30;22.67;;;7.72;;
28762;SDS011;15918;51.270;6.522;2023-11-19T03:50:56;23.33;;;7.40;;
28762;SDS011;15918;51.270;6.522;2023-11-19T03:53:21;25.10;;;6.30;;
28762;SDS011;15918;51.270;6.522;2023-11-19T03:55:49;25.17;;;6.85;;
28762;SDS011;15918;51.270;6.522;2023-11-19T03:58:15;24.83;;;7.43;;
28762;SDS011;15918;51.270;6.522;2023-11-19T04:00:40;28.15;;;7.28;;
28762;SDS011;15918;51.270;6.522;2023-11-19T04:03:06;38.22;;;8.10;;
28762;SDS011;15918;51.270;6.522;2023-11-19T04:05:31;25.05;;;7.18;;
28762;SDS011;15918;51.270;6.522;2023-11-19T04:07:57;27.73;;;7.80;;
28762;SDS011;15918;51.270;6.522;2023-11-19T04:10:23;28.25;;;7.65;;
28762;SDS011;15918;51.270;6.522;2023-11-19T04:12:48;29.90;;;7.88;;
28762;SDS011;15918;51.270;6.522;2023-11-19T04:15:14;31.52;;;8.40;;
28762;SDS011;15918;51.270;6.522;2023-11-19T04:17:39;30.85;;;6.97;;
28762;SDS011;15918;51.270;6.522;2023-11-19T04:20:05;28.25;;;8.40;;
28762;SDS011;15918;51.270;6.522;2023-11-19T04:22:35;39.22;;;8.60;;
28762;SDS011;15918;51.270;6.522;2023-11-19T04:25:01;32.63;;;8.25;;
28762;SDS011;15918;51.270;6.522;2023-11-19T04:27:26;31.88;;;8.02;;
28762;SDS011;15918;51.270;6.522;2023-11-19T04:29:52;32.53;;;8.30;;
28762;SDS011;15918;51.270;6.522;2023-11-19T04:32:18;36.03;;;8.57;;
28762;SDS011;15918;51.270;6.522;2023-11-19T04:34:44;39.83;;;8.82;;
28762;SDS011;15918;51.270;6.522;2023-11-19T04:37:09;28.60;;;8.02;;
28762;SDS011;15918;51.270;6.522;2023-11-19T04:39:35;37.10;;;8.52;;
28762;SDS011;15918;51.270;6.522;2023-11-19T04:42:02;32.95;;;8.57;;
28762;SDS011;15918;51.270;6.522;2023-11-19T04:44:29;30.10;;;8.13;;
28762;SDS011;15918;51.270;6.522;2023-11-19T04:46:55;26.90;;;7.80;;
28762;SDS011;15918;51.270;6.522;2023-11-19T04:49:21;36.80;;;7.97;;
28762;SDS011;15918;51.270;6.522;2023-11-19T04:51:46;31.02;;;8.43;;
28762;SDS011;15918;51.270;6.522;2023-11-19T04:54:12;28.05;;;7.45;;
28762;SDS011;15918;51.270;6.522;2023-11-19T04:56:38;31.70;;;7.50;;
28762;SDS011;15918;51.270;6.522;2023-11-19T04:59:04;36.75;;;8.57;;
28762;SDS011;15918;51.270;6.522;2023-11-19T05:01:31;31.50;;;8.25;;
28762;SDS011;15918;51.270;6.522;2023-11-19T05:04:00;42.05;;;8.57;;
28762;SDS011;15918;51.270;6.522;2023-11-19T05:06:27;33.33;;;8.63;;
28762;SDS011;15918;51.270;6.522;2023-11-19T05:08:56;35.92;;;8.43;;
28762;SDS011;15918;51.270;6.522;2023-11-19T05:11:25;34.28;;;8.05;;
28762;SDS011;15918;51.270;6.522;2023-11-19T05:13:53;30.48;;;7.50;;
28762;SDS011;15918;51.270;6.522;2023-11-19T05:16:19;31.90;;;7.72;;
28762;SDS011;15918;51.270;6.522;2023-11-19T05:18:45;34.50;;;8.30;;
28762;SDS011;15918;51.270;6.522;2023-11-19T05:21:11;38.15;;;8.77;;
28762;SDS011;15918;51.270;6.522;2023-11-19T05:23:37;31.20;;;7.55;;
28762;SDS011;15918;51.270;6.522;2023-11-19T05:26:04;37.08;;;9.02;;
28762;SDS011;15918;51.270;6.522;2023-11-19T05:28:30;40.05;;;8.80;;
28762;SDS011;15918;51.270;6.522;2023-11-19T05:30:55;33.08;;;8.02;;
28762;SDS011;15918;51.270;6.522;2023-11-19T05:33:21;40.33;;;9.35;;
28762;SDS011;15918;51.270;6.522;2023-11-19T05:35:47;35.83;;;8.85;;
28762;SDS011;15918;51.270;6.522;2023-11-19T05:38:12;33.80;;;8.27;;
28762;SDS011;15918;51.270;6.522;2023-11-19T05:40:39;36.70;;;8.80;;
28762;SDS011;15918;51.270;6.522;2023-11-19T05:43:05;30.48;;;8.15;;
28762;SDS011;15918;51.270;6.522;2023-11-19T05:45:31;29.83;;;8.90;;
28762;SDS011;15918;51.270;6.522;2023-11-19T05:47:57;33.67;;;8.50;;
28762;SDS011;15918;51.270;6.522;2023-11-19T05:50:23;35.42;;;9.60;;
28762;SDS011;15918;51.270;6.522;2023-11-19T05:52:49;38.90;;;9.02;;
28762;SDS011;15918;51.270;6.522;2023-11-19T05:55:15;36.75;;;9.88;;
28762;SDS011;15918;51.270;6.522;2023-11-19T05:57:41;35.90;;;10.05;;
28762;SDS011;15918;51.270;6.522;2023-11-19T06:00:07;37.03;;;9.15;;
28762;SDS011;15918;51.270;6.522;2023-11-19T06:02:33;39.97;;;8.80;;
28762;SDS011;15918;51.270;6.522;2023-11-19T06:05:00;30.35;;;8.75;;
28762;SDS011;15918;51.270;6.522;2023-11-19T06:07:26;35.20;;;8.73;;
28762;SDS011;15918;51.270;6.522;2023-11-19T06:09:53;34.30;;;9.57;;
28762;SDS011;15918;51.270;6.522;2023-11-19T06:12:18;39.92;;;9.40;;
28762;SDS011;15918;51.270;6.522;2023-11-19T06:14:44;35.88;;;9.20;;
28762;SDS011;15918;51.270;6.522;2023-11-19T06:17:09;31.35;;;8.57;;
28762;SDS011;15918;51.270;6.522;2023-11-19T06:19:36;29.98;;;8.85;;
28762;SDS011;15918;51.270;6.522;2023-11-19T06:22:03;42.80;;;8.20;;
28762;SDS011;15918;51.270;6.522;2023-11-19T06:24:28;31.10;;;8.70;;
28762;SDS011;15918;51.270;6.522;2023-11-19T06:26:54;30.67;;;9.63;;
28762;SDS011;15918;51.270;6.522;2023-11-19T06:29:20;39.13;;;10.77;;
28762;SDS011;15918;51.270;6.522;2023-11-19T06:31:45;41.78;;;14.30;;
28762;SDS011;15918;51.270;6.522;2023-11-19T06:34:14;38.53;;;12.90;;
28762;SDS011;15918;51.270;6.522;2023-11-19T06:36:40;39.42;;;10.85;;
28762;SDS011;15918;51.270;6.522;2023-11-19T06:39:08;36.08;;;9.82;;
28762;SDS011;15918;51.270;6.522;2023-11-19T06:41:34;32.80;;;9.60;;
28762;SDS011;15918;51.270;6.522;2023-11-19T06:43:59;46.83;;;11.65;;
28762;SDS011;15918;51.270;6.522;2023-11-19T06:46:25;36.95;;;10.57;;
28762;SDS011;15918;51.270;6.522;2023-11-19T06:48:50;49.08;;;12.02;;
28762;SDS011;15918;51.270;6.522;2023-11-19T06:51:16;34.75;;;9.88;;
28762;SDS011;15918;51.270;6.522;2023-11-19T06:53:42;40.88;;;10.50;;
28762;SDS011;15918;51.270;6.522;2023-11-19T06:56:19;41.00;;;10.32;;
28762;SDS011;15918;51.270;6.522;2023-11-19T06:58:46;41.70;;;11.02;;
28762;SDS011;15918;51.270;6.522;2023-11-19T07:01:13;37.17;;;10.10;;
28762;SDS011;15918;51.270;6.522;2023-11-19T07:03:40;36.53;;;8.85;;
28762;SDS011;15918;51.270;6.522;2023-11-19T07:06:05;27.80;;;8.90;;
28762;SDS011;15918;51.270;6.522;2023-11-19T07:08:31;33.75;;;9.25;;
28762;SDS011;15918;51.270;6.522;2023-11-19T07:10:57;38.97;;;9.45;;
28762;SDS011;15918;51.270;6.522;2023-11-19T07:13:22;34.83;;;10.85;;
28762;SDS011;15918;51.270;6.522;2023-11-19T07:15:48;36.97;;;11.68;;
28762;SDS011;15918;51.270;6.522;2023-11-19T07:18:14;36.67;;;11.38;;
28762;SDS011;15918;51.270;6.522;2023-11-19T07:20:39;42.03;;;11.05;;
28762;SDS011;15918;51.270;6.522;2023-11-19T07:23:06;39.67;;;10.63;;
28762;SDS011;15918;51.270;6.522;2023-11-19T07:25:31;40.95;;;10.85;;
28762;SDS011;15918;51.270;6.522;2023-11-19T07:27:57;36.22;;;10.60;;
28762;SDS011;15918;51.270;6.522;2023-11-19T07:30:22;47.40;;;12.23;;
28762;SDS011;15918;51.270;6.522;2023-11-19T07:32:48;47.08;;;13.30;;
28762;SDS011;15918;51.270;6.522;2023-11-19T07:35:14;50.08;;;12.90;;
28762;SDS011;15918;51.270;6.522;2023-11-19T07:37:40;43.63;;;13.18;;
28762;SDS011;15918;51.270;6.522;2023-11-19T07:40:07;38.75;;;11.73;;
28762;SDS011;15918;51.270;6.522;2023-11-19T07:42:33;38.72;;;10.35;;
28762;SDS011;15918;51.270;6.522;2023-11-19T07:44:59;51.10;;;11.63;;
28762;SDS011;15918;51.270;6.522;2023-11-19T07:47:24;38.75;;;10.43;;
28762;SDS011;15918;51.270;6.522;2023-11-19T07:49:50;46.78;;;11.38;;
28762;SDS011;15918;51.270;6.522;2023-11-19T07:52:16;42.50;;;11.00;;
28762;SDS011;15918;51.270;6.522;2023-11-19T07:54:41;42.00;;;10.82;;
28762;SDS011;15918;51.270;6.522;2023-11-19T07:57:07;40.20;;;10.93;;
28762;SDS011;15918;51.270;6.522;2023-11-19T07:59:33;41.58;;;10.75;;
28762;SDS011;15918;51.270;6.522;2023-11-19T08:01:58;39.85;;;11.40;;
28762;SDS011;15918;51.270;6.522;2023-11-19T08:04:24;40.70;;;10.68;;
28762;SDS011;15918;51.270;6.522;2023-11-19T08:06:50;43.72;;;10.85;;
28762;SDS011;15918;51.270;6.522;2023-11-19T08:09:16;42.28;;;11.48;;
28762;SDS011;15918;51.270;6.522;2023-11-19T08:11:42;40.20;;;11.90;;
28762;SDS011;15918;51.270;6.522;2023-11-19T08:14:08;42.92;;;11.65;;
28762;SDS011;15918;51.270;6.522;2023-11-19T08:16:34;38.58;;;11.98;;
28762;SDS011;15918;51.270;6.522;2023-11-19T08:19:01;43.78;;;12.57;;
28762;SDS011;15918;51.270;6.522;2023-11-19T08:21:28;48.67;;;12.88;;
28762;SDS011;15918;51.270;6.522;2023-11-19T08:23:54;42.10;;;12.35;;
28762;SDS011;15918;51.270;6.522;2023-11-19T08:26:19;44.30;;;12.18;;
28762;SDS011;15918;51.270;6.522;2023-11-19T08:28:45;42.38;;;11.88;;
28762;SDS011;15918;51.270;6.522;2023-11-19T08:31:11;40.55;;;10.73;;
28762;SDS011;15918;51.270;6.522;2023-11-19T08:33:36;42.30;;;10.45;;
28762;SDS011;15918;51.270;6.522;2023-11-19T08:36:02;48.10;;;11.05;;
28762;SDS011;15918;51.270;6.522;2023-11-19T08:38:29;37.88;;;10.23;;
28762;SDS011;15918;51.270;6.522;2023-11-19T08:40:54;43.63;;;10.02;;
28762;SDS011;15918;51.270;6.522;2023-11-19T08:43:24;44.88;;;11.10;;
28762;SDS011;15918;51.270;6.522;2023-11-19T08:45:50;38.15;;;9.57;;
28762;SDS011;15918;51.270;6.522;2023-11-19T08:48:16;41.13;;;10.38;;
28762;SDS011;15918;51.270;6.522;2023-11-19T08:50:42;39.92;;;12.65;;
28762;SDS011;15918;51.270;6.522;2023-11-19T08:53:07;55.17;;;15.75;;
28762;SDS011;15918;51.270;6.522;2023-11-19T08:55:33;44.72;;;15.10;;
28762;SDS011;15918;51.270;6.522;2023-11-19T08:57:58;50.63;;;20.55;;
28762;SDS011;15918;51.270;6.522;2023-11-19T09:00:24;51.45;;;18.52;;
28762;SDS011;15918;51.270;6.522;2023-11-19T09:02:49;45.40;;;16.83;;
28762;SDS011;15918;51.270;6.522;2023-11-19T09:05:15;45.47;;;15.77;;
28762;SDS011;15918;51.270;6.522;2023-11-19T09:07:41;45.22;;;14.85;;
28762;SDS011;15918;51.270;6.522;2023-11-19T09:10:06;46.03;;;14.80;;
28762;SDS011;15918;51.270;6.522;2023-11-19T09:12:33;52.60;;;14.23;;
28762;SDS011;15918;51.270;6.522;2023-11-19T09:15:00;43.25;;;11.95;;
28762;SDS011;15918;51.270;6.522;2023-11-19T09:17:25;51.85;;;14.02;;
28762;SDS011;15918;51.270;6.522;2023-11-19T09:19:51;43.55;;;14.23;;
28762;SDS011;15918;51.270;6.522;2023-11-19T09:22:16;50.28;;;16.00;;
28762;SDS011;15918;51.270;6.522;2023-11-19T09:24:42;43.67;;;12.98;;
28762;SDS011;15918;51.270;6.522;2023-11-19T09:27:09;45.75;;;14.02;;
28762;SDS011;15918;51.270;6.522;2023-11-19T09:29:35;42.03;;;12.60;;
28762;SDS011;15918;51.270;6.522;2023-11-19T09:32:01;42.28;;;12.95;;
28762;SDS011;15918;51.270;6.522;2023-11-19T09:34:26;46.60;;;13.02;;
28762;SDS011;15918;51.270;6.522;2023-11-19T09:36:53;42.35;;;12.85;;
28762;SDS011;15918;51.270;6.522;2023-11-19T09:39:18;46.35;;;12.27;;
28762;SDS011;15918;51.270;6.522;2023-11-19T09:41:45;47.38;;;13.68;;
28762;SDS011;15918;51.270;6.522;2023-11-19T09:44:11;39.47;;;11.27;;
28762;SDS011;15918;51.270;6.522;2023-11-19T09:46:38;49.80;;;11.30;;
28762;SDS011;15918;51.270;6.522;2023-11-19T09:49:05;37.85;;;10.48;;
28762;SDS011;15918;51.270;6.522;2023-11-19T09:51:33;43.47;;;10.57;;
28762;SDS011;15918;51.270;6.522;2023-11-19T09:54:00;42.60;;;11.82;;
28762;SDS011;15918;51.270;6.522;2023-11-19T09:56:26;38.00;;;11.38;;
28762;SDS011;15918;51.270;6.522;2023-11-19T09:58:54;41.75;;;11.68;;
28762;SDS011;15918;51.270;6.522;2023-11-19T10:01:20;40.25;;;11.30;;
28762;SDS011;15918;51.270;6.522;2023-11-19T10:03:46;48.03;;;10.63;;
28762;SDS011;15918;51.270;6.522;2023-11-19T10:06:12;46.78;;;12.88;;
28762;SDS011;15918;51.270;6.522;2023-11-19T10:08:39;37.38;;;10.10;;
28762;SDS011;15918;51.270;6.522;2023-11-19T10:11:06;38.90;;;10.60;;
28762;SDS011;15918;51.270;6.522;2023-11-19T10:13:34;51.75;;;11.40;;
28762;SDS011;15918;51.270;6.522;2023-11-19T10:16:09;34.63;;;9.50;;
28762;SDS011;15918;51.270;6.522;2023-11-19T10:18:37;37.70;;;11.43;;
28762;SDS011;15918;51.270;6.522;2023-11-19T10:21:07;39.53;;;10.32;;
28762;SDS011;15918;51.270;6.522;2023-11-19T10:23:51;35.22;;;9.60;;
28762;SDS011;15918;51.270;6.522;2023-11-19T10:28:45;36.95;;;10.85;;
28762;SDS011;15918;51.270;6.522;2023-11-19T10:31:15;43.45;;;10.90;;
28762;SDS011;15918;51.270;6.522;2023-11-19T10:33:41;42.50;;;10.70;;
28762;SDS011;15918;51.270;6.522;2023-11-19T10:36:09;44.80;;;11.55;;
28762;SDS011;15918;51.270;6.522;2023-11-19T10:38:36;39.78;;;9.75;;
28762;SDS011;15918;51.270;6.522;2023-11-19T10:41:02;37.10;;;10.73;;
28762;SDS011;15918;51.270;6.522;2023-11-19T10:43:29;37.30;;;10.23;;
28762;SDS011;15918;51.270;6.522;2023-11-19T10:45:55;38.80;;;10.60;;
28762;SDS011;15918;51.270;6.522;2023-11-19T10:48:35;35.97;;;9.73;;
28762;SDS011;15918;51.270;6.522;2023-11-19T10:51:00;33.50;;;10.85;;
28762;SDS011;15918;51.270;6.522;2023-11-19T10:53:32;34.15;;;10.13;;
28762;SDS011;15918;51.270;6.522;2023-11-19T10:56:01;43.50;;;11.30;;
28762;SDS011;15918;51.270;6.522;2023-11-19T10:58:30;40.42;;;10.95;;
28762;SDS011;15918;51.270;6.522;2023-11-19T11:00:57;32.67;;;10.40;;
28762;SDS011;15918;51.270;6.522;2023-11-19T11:03:31;39.58;;;10.13;;
28762;SDS011;15918;51.270;6.522;2023-11-19T11:06:04;38.90;;;10.32;;
28762;SDS011;15918;51.270;6.522;2023-11-19T11:08:31;41.53;;;10.43;;
28762;SDS011;15918;51.270;6.522;2023-11-19T11:10:56;38.45;;;9.80;;
28762;SDS011;15918;51.270;6.522;2023-11-19T11:13:23;26.10;;;8.68;;
28762;SDS011;15918;51.270;6.522;2023-11-19T11:15:50;32.30;;;9.30;;
28762;SDS011;15918;51.270;6.522;2023-11-19T11:18:16;38.00;;;8.82;;
28762;SDS011;15918;51.270;6.522;2023-11-19T11:20:45;33.50;;;10.02;;
28762;SDS011;15918;51.270;6.522;2023-11-19T11:26:25;31.13;;;9.02;;
28762;SDS011;15918;51.270;6.522;2023-11-19T11:29:04;32.47;;;8.75;;
28762;SDS011;15918;51.270;6.522;2023-11-19T11:39:35;32.38;;;8.93;;
28762;SDS011;15918;51.270;6.522;2023-11-19T11:47:24;33.20;;;9.50;;
28762;SDS011;15918;51.270;6.522;2023-11-19T11:49:50;31.65;;;8.55;;
28762;SDS011;15918;51.270;6.522;2023-11-19T11:52:17;33.72;;;8.95;;
28762;SDS011;15918;51.270;6.522;2023-11-19T11:54:43;29.10;;;8.30;;
28762;SDS011;15918;51.270;6.522;2023-11-19T11:59:37;35.45;;;8.98;;
28762;SDS011;15918;51.270;6.522;2023-11-19T12:02:08;27.60;;;8.05;;
28762;SDS011;15918;51.270;6.522;2023-11-19T12:04:35;29.67;;;8.40;;
28762;SDS011;15918;51.270;6.522;2023-11-19T12:07:11;37.75;;;8.48;;
28762;SDS011;15918;51.270;6.522;2023-11-19T12:09:42;32.85;;;8.82;;
28762;SDS011;15918;51.270;6.522;2023-11-19T12:12:19;23.60;;;7.45;;
28762;SDS011;15918;51.270;6.522;2023-11-19T12:15:18;32.22;;;8.75;;
28762;SDS011;15918;51.270;6.522;2023-11-19T12:17:49;29.77;;;7.45;;
28762;SDS011;15918;51.270;6.522;2023-11-19T12:22:42;24.83;;;6.90;;
28762;SDS011;15918;51.270;6.522;2023-11-19T12:25:10;34.47;;;9.88;;
28762;SDS011;15918;51.270;6.522;2023-11-19T12:27:39;30.85;;;8.30;;
28762;SDS011;15918;51.270;6.522;2023-11-19T12:30:10;32.40;;;8.60;;
28762;SDS011;15918;51.270;6.522;2023-11-19T12:32:39;33.60;;;8.07;;
28762;SDS011;15918;51.270;6.522;2023-11-19T12:35:06;37.60;;;9.10;;
28762;SDS011;15918;51.270;6.522;2023-11-19T12:37:42;33.47;;;9.68;;
28762;SDS011;15918;51.270;6.522;2023-11-19T12:42:44;27.10;;;8.25;;
28762;SDS011;15918;51.270;6.522;2023-11-19T12:45:11;30.58;;;8.18;;
28762;SDS011;15918;51.270;6.522;2023-11-19T12:47:37;32.50;;;8.05;;
28762;SDS011;15918;51.270;6.522;2023-11-19T12:50:04;31.50;;;8.82;;
28762;SDS011;15918;51.270;6.522;2023-11-19T12:52:30;29.25;;;8.27;;
28762;SDS011;15918;51.270;6.522;2023-11-19T12:54:56;24.02;;;7.53;;
28762;SDS011;15918;51.270;6.522;2023-11-19T12:57:35;31.85;;;9.15;;
28762;SDS011;15918;51.270;6.522;2023-11-19T13:00:07;26.48;;;8.27;;
28762;SDS011;15918;51.270;6.522;2023-11-19T13:02:50;33.28;;;9.68;;
28762;SDS011;15918;51.270;6.522;2023-11-19T13:05:23;37.03;;;10.43;;
28762;SDS011;15918;51.270;6.522;2023-11-19T13:08:02;33.67;;;9.73;;
28762;SDS011;15918;51.270;6.522;2023-11-19T13:10:33;33.63;;;10.70;;
28762;SDS011;15918;51.270;6.522;2023-11-19T13:13:14;34.28;;;10.07;;
28762;SDS011;15918;51.270;6.522;2023-11-19T13:15:40;27.60;;;9.25;;
28762;SDS011;15918;51.270;6.522;2023-11-19T13:18:05;26.02;;;8.15;;
28762;SDS011;15918;51.270;6.522;2023-11-19T13:20:31;33.97;;;9.13;;
28762;SDS011;15918;51.270;6.522;2023-11-19T13:22:59;30.63;;;8.43;;
28762;SDS011;15918;51.270;6.522;2023-11-19T13:25:26;32.20;;;8.82;;
28762;SDS011;15918;51.270;6.522;2023-11-19T13:27:53;33.40;;;8.68;;
28762;SDS011;15918;51.270;6.522;2023-11-19T13:30:19;31.25;;;7.57;;
28762;SDS011;15918;51.270;6.522;2023-11-19T13:32:45;23.08;;;7.63;;
28762;SDS011;15918;51.270;6.522;2023-11-19T13:35:11;28.73;;;7.47;;
28762;SDS011;15918;51.270;6.522;2023-11-19T13:37:38;30.17;;;9.00;;
28762;SDS011;15918;51.270;6.522;2023-11-19T13:40:04;27.10;;;8.63;;
28762;SDS011;15918;51.270;6.522;2023-11-19T13:42:31;33.20;;;9.18;;
28762;SDS011;15918;51.270;6.522;2023-11-19T13:44:57;31.45;;;8.07;;
28762;SDS011;15918;51.270;6.522;2023-11-19T13:47:22;28.13;;;8.07;;
28762;SDS011;15918;51.270;6.522;2023-11-19T13:49:48;29.55;;;9.02;;
28762;SDS011;15918;51.270;6.522;2023-11-19T13:52:14;30.20;;;8.70;;
28762;SDS011;15918;51.270;6.522;2023-11-19T13:54:40;29.23;;;9.27;;
28762;SDS011;15918;51.270;6.522;2023-11-19T13:57:06;30.15;;;8.13;;
28762;SDS011;15918;51.270;6.522;2023-11-19T13:59:31;25.92;;;8.07;;
28762;SDS011;15918;51.270;6.522;2023-11-19T14:01:57;31.17;;;8.52;;
28762;SDS011;15918;51.270;6.522;2023-11-19T14:04:23;37.55;;;9.52;;
28762;SDS011;15918;51.270;6.522;2023-11-19T14:06:50;37.28;;;8.68;;
28762;SDS011;15918;51.270;6.522;2023-11-19T14:09:16;29.08;;;7.93;;
28762;SDS011;15918;51.270;6.522;2023-11-19T14:11:42;29.17;;;8.27;;
28762;SDS011;15918;51.270;6.522;2023-11-19T14:14:08;24.75;;;7.03;;
28762;SDS011;15918;51.270;6.522;2023-11-19T14:16:34;29.15;;;7.95;;
28762;SDS011;15918;51.270;6.522;2023-11-19T14:18:59;26.30;;;8.23;;
28762;SDS011;15918;51.270;6.522;2023-11-19T14:21:25;29.60;;;7.60;;
28762;SDS011;15918;51.270;6.522;2023-11-19T14:23:51;30.50;;;8.18;;
28762;SDS011;15918;51.270;6.522;2023-11-19T14:26:17;29.27;;;8.57;;
28762;SDS011;15918;51.270;6.522;2023-11-19T14:28:43;29.35;;;8.18;;
28762;SDS011;15918;51.270;6.522;2023-11-19T14:31:09;33.03;;;9.13;;
28762;SDS011;15918;51.270;6.522;2023-11-19T14:33:35;32.85;;;8.98;;
28762;SDS011;15918;51.270;6.522;2023-11-19T14:36:01;27.17;;;8.35;;
28762;SDS011;15918;51.270;6.522;2023-11-19T14:38:27;28.83;;;8.32;;
28762;SDS011;15918;51.270;6.522;2023-11-19T14:40:53;27.15;;;8.40;;
28762;SDS011;15918;51.270;6.522;2023-11-19T14:43:19;28.50;;;8.52;;
28762;SDS011;15918;51.270;6.522;2023-11-19T14:45:45;32.50;;;9.02;;
28762;SDS011;15918;51.270;6.522;2023-11-19T14:48:11;31.20;;;8.60;;
28762;SDS011;15918;51.270;6.522;2023-11-19T14:50:36;34.53;;;9.27;;
28762;SDS011;15918;51.270;6.522;2023-11-19T14:53:02;31.15;;;9.25;;
28762;SDS011;15918;51.270;6.522;2023-11-19T14:55:28;25.95;;;7.50;;
28762;SDS011;15918;51.270;6.522;2023-11-19T14:57:53;31.10;;;8.82;;
28762;SDS011;15918;51.270;6.522;2023-11-19T15:00:19;26.17;;;7.93;;